Aeroporto :
LOGIN :

Iscrizione | Disclaimer

   EN    FR    IT 

 










Sommario :    VFR   VFR Marginale   IFR   IFR Intensivo   IFR Molto Intensivo
Visibilità : 
Base nubi : 
>= 8 km
>= 3000ft
5 / 8 km
1000 / 3000 ft
1500m / 5 km
500 / 1000 ft
800 / 1500m
200 / 500 ft
< 800m
< 200 ft
Simboli :   Temporali  Nebbia  Neve Forte  Precipitazioni Forti  Vento > 20 kt
SIGMETs :   Varie  Temporali  Ghiacco  Turbolenza  Onda orograficha  Ceneri Vulcaniche






- Altitudine del aeroporto : 52 ft
- Codice IATA : IOM


EGNS - Isle of Man

ULTIMO METAR :
  • 250820Z 08003KT 5000 BR OVC003 14/13 Q1018 NOSIG

METARs OBSOLETI :
  • 250750Z 10002KT 3500 BR OVC002 14/13 Q1018 NOSIG
  • 250720Z 13002KT 5000 BR OVC003 14/13 Q1018 NOSIG
  • 250650Z 12002KT 8000 BKN002 OVC003 13/13 Q1018 TEMPO 9999
  • 250620Z 18001KT 5000 BR BKN002 OVC003 13/13 Q1017 NOSIG
  • 250550Z 10002KT 2500 BR BKN001 OVC002 13/13 Q1017 NOSIG
  • 250520Z 10003KT 0800 FG BKN001 OVC002 13/13 Q1017 NOSIG
  • 250450Z 10002KT 2000 BR BKN001 OVC002 13/13 Q1017 NOSIG
  • 250420Z 08002KT 0800 FG BKN001 OVC002 13/13 Q1017 NOSIG
  • 250350Z 07002KT 0800 FG BKN001 OVC002 13/13 Q1017

TAF TAF EGNS
Valido dal 25 a 06 ore il 25 a 15 ore UTC


250500Z 2506/2515 VRB05KT 2500 BR BKN004
PROB40
TEMPO 2506/2515 0800 FG BKN001
BECMG 2512/2515 9999 NSW BKN015



MetMap, La meteo Aeronautica in un colpo d'occhio ! - Copyright ORBIFLY Dicembre 2007 - Disclaimer

ORBIFLY MET'MAP TEAM :

Programmazione e sviluppo : Alexandra Zaïnal
Concezione : Baudouin d'Aumeries
Supporto tecnico e logistico : Manuel Goepfert
Aiuto : Marc-Olivier Méhu
Aiuto per la traduzione : Arnaldo La Scala




FONTI E CREDITI :

   NOAA